createdAt,value
2023-08-12T00:00:12.540Z,2.40
2023-08-12T00:02:46.597Z,2.00
2023-08-12T00:05:18.014Z,2.20
2023-08-12T00:07:46.378Z,2.28
2023-08-12T00:10:16.600Z,2.30
2023-08-12T00:12:45.487Z,1.98
2023-08-12T00:15:14.012Z,2.47
2023-08-12T00:17:43.165Z,2.50
2023-08-12T00:20:14.581Z,2.30
2023-08-12T00:22:43.120Z,2.35
2023-08-12T00:25:11.790Z,2.17
2023-08-12T00:27:40.187Z,2.40
2023-08-12T00:30:09.768Z,2.67
2023-08-12T00:32:38.244Z,2.63
2023-08-12T00:35:09.711Z,2.42
2023-08-12T00:37:39.486Z,2.10
2023-08-12T00:40:09.164Z,2.53
2023-08-12T00:42:37.590Z,2.78
2023-08-12T00:45:11.267Z,2.20
2023-08-12T00:47:40.257Z,2.45
2023-08-12T00:50:11.045Z,2.72
2023-08-12T00:52:41.566Z,2.30
2023-08-12T00:55:10.444Z,2.83
2023-08-12T00:57:41.774Z,2.55
2023-08-12T01:00:11.072Z,2.38
2023-08-12T01:02:39.553Z,2.88
2023-08-12T01:05:08.636Z,2.38
2023-08-12T01:07:37.503Z,2.00
2023-08-12T01:10:09.112Z,2.97
2023-08-12T01:12:43.670Z,3.08
2023-08-12T01:15:21.873Z,2.67
2023-08-12T01:17:53.454Z,2.80
2023-08-12T01:20:26.019Z,2.47
2023-08-12T01:22:59.266Z,2.70
2023-08-12T01:25:29.154Z,2.60
2023-08-12T01:27:57.702Z,2.78
2023-08-12T01:30:26.237Z,2.92
2023-08-12T01:32:59.456Z,2.78
2023-08-12T01:35:35.290Z,2.58
2023-08-12T01:38:06.149Z,2.60
2023-08-12T01:40:37.283Z,3.42
2023-08-12T01:43:07.146Z,2.97
2023-08-12T01:45:35.720Z,2.60
2023-08-12T01:48:04.402Z,3.08
2023-08-12T01:50:32.845Z,3.30
2023-08-12T01:53:01.237Z,2.53
2023-08-12T01:55:32.031Z,2.67
2023-08-12T01:58:01.776Z,2.83
2023-08-12T02:00:30.202Z,3.08
2023-08-12T02:02:58.861Z,2.90
2023-08-12T02:05:27.746Z,2.55
2023-08-12T02:07:56.181Z,3.00
2023-08-12T02:10:24.620Z,2.90
2023-08-12T02:12:55.466Z,2.92
2023-08-12T02:15:25.686Z,3.10
2023-08-12T02:17:54.099Z,2.67
2023-08-12T02:20:22.577Z,2.75
2023-08-12T02:22:50.962Z,3.20
2023-08-12T02:25:19.464Z,2.30
2023-08-12T02:27:47.883Z,2.88
2023-08-12T02:30:16.306Z,2.63
2023-08-12T02:32:47.564Z,2.80
2023-08-12T02:35:16.008Z,3.17
2023-08-12T02:37:44.476Z,2.92
2023-08-12T02:40:13.466Z,2.58
2023-08-12T02:42:41.830Z,3.17
2023-08-12T02:45:10.764Z,2.88
2023-08-12T02:47:39.214Z,3.05
2023-08-12T02:50:10.648Z,2.88
2023-08-12T02:52:39.130Z,3.10
2023-08-12T02:55:07.931Z,2.85
2023-08-12T02:57:36.378Z,3.40
2023-08-12T03:00:06.500Z,3.25
2023-08-12T03:02:35.100Z,3.17
2023-08-12T03:05:04.217Z,3.17
2023-08-12T03:07:33.929Z,3.67
2023-08-12T03:10:02.836Z,3.35
2023-08-12T03:12:31.420Z,3.03
2023-08-12T03:14:59.959Z,3.28
2023-08-12T03:17:29.561Z,3.40
2023-08-12T03:20:00.286Z,3.47
2023-08-12T03:22:31.141Z,3.60
2023-08-12T03:25:01.715Z,3.80
2023-08-12T03:27:30.127Z,3.80
2023-08-12T03:29:58.733Z,3.60
2023-08-12T03:32:28.059Z,3.65
2023-08-12T03:34:57.400Z,3.50
2023-08-12T03:37:27.394Z,4.10
2023-08-12T03:39:56.375Z,3.53
2023-08-12T03:42:26.227Z,3.60
2023-08-12T03:44:54.980Z,3.67
2023-08-12T03:47:25.614Z,3.70
2023-08-12T03:49:55.612Z,3.70
2023-08-12T03:52:24.795Z,3.50
2023-08-12T03:54:54.049Z,4.03
2023-08-12T03:57:24.926Z,3.63
2023-08-12T03:59:53.831Z,4.10
2023-08-12T04:02:22.166Z,4.35
2023-08-12T04:04:52.436Z,3.90
2023-08-12T04:07:21.213Z,3.78
2023-08-12T04:09:49.539Z,3.38
2023-08-12T04:12:17.897Z,4.00
2023-08-12T04:14:47.625Z,3.70
2023-08-12T04:17:15.976Z,3.72
2023-08-12T04:19:44.893Z,3.90
2023-08-12T04:22:13.220Z,4.20
2023-08-12T04:24:41.702Z,3.80
2023-08-12T04:27:10.641Z,4.07
2023-08-12T04:29:39.185Z,3.95
2023-08-12T04:32:09.291Z,4.93
2023-08-12T04:34:37.926Z,4.22
2023-08-12T04:37:06.585Z,3.88
2023-08-12T04:39:34.979Z,4.30
2023-08-12T04:42:04.345Z,3.50
2023-08-12T04:44:33.111Z,4.13
2023-08-12T04:47:02.762Z,3.97
2023-08-12T04:49:33.876Z,3.88
2023-08-12T04:52:02.257Z,3.92
2023-08-12T04:54:31.007Z,4.20
2023-08-12T04:57:00.311Z,4.35
2023-08-12T04:59:28.750Z,3.92
2023-08-12T05:02:04.724Z,4.15
2023-08-12T05:04:35.989Z,3.75
2023-08-12T05:07:04.372Z,4.43
2023-08-12T05:09:33.075Z,4.63
2023-08-12T05:12:01.551Z,4.15
2023-08-12T05:14:30.476Z,4.50
2023-08-12T05:16:58.859Z,4.00
2023-08-12T05:19:27.217Z,4.63
2023-08-12T05:21:59.765Z,4.57
2023-08-12T05:24:32.110Z,4.70
2023-08-12T05:27:00.494Z,4.50
2023-08-12T05:29:28.851Z,4.65
2023-08-12T05:31:57.327Z,6.03
2023-08-12T05:34:25.750Z,9.55
2023-08-12T05:36:54.610Z,5.20
2023-08-12T05:39:24.302Z,6.72
2023-08-12T05:41:53.401Z,6.82
2023-08-12T05:44:21.869Z,7.38
2023-08-12T05:46:53.279Z,10.80
2023-08-12T05:49:21.619Z,6.15
2023-08-12T05:51:52.886Z,6.68
2023-08-12T05:54:21.197Z,6.25
2023-08-12T05:56:51.169Z,5.85
2023-08-12T05:59:19.654Z,6.22
2023-08-12T06:01:48.043Z,5.50
2023-08-12T06:04:16.369Z,6.68
2023-08-12T06:06:44.803Z,6.70
2023-08-12T06:09:13.216Z,6.65
2023-08-12T06:11:42.776Z,7.53
2023-08-12T06:14:14.856Z,5.90
2023-08-12T06:16:43.217Z,6.00
2023-08-12T06:19:12.326Z,6.65
2023-08-12T06:21:40.872Z,7.40
2023-08-12T06:24:14.827Z,8.98
2023-08-12T06:26:43.376Z,8.15
2023-08-12T06:29:15.909Z,8.90
2023-08-12T06:31:44.353Z,8.73
2023-08-12T06:34:12.704Z,8.35
2023-08-12T06:36:41.097Z,8.20
2023-08-12T06:39:09.440Z,7.38
2023-08-12T06:41:37.881Z,8.82
2023-08-12T06:44:09.624Z,10.52
2023-08-12T06:46:39.367Z,10.90
2023-08-12T06:49:10.014Z,7.97
2023-08-12T06:51:38.341Z,10.25
2023-08-12T06:54:07.148Z,10.85
2023-08-12T06:56:35.463Z,12.02
2023-08-12T06:59:03.847Z,7.95
2023-08-12T07:01:32.454Z,12.27
2023-08-12T07:04:02.264Z,11.23
2023-08-12T07:06:30.763Z,11.15
2023-08-12T07:08:59.092Z,11.45
2023-08-12T07:11:27.526Z,14.10
2023-08-12T07:13:58.522Z,14.60
2023-08-12T07:16:26.898Z,11.70
2023-08-12T07:18:57.749Z,11.75
2023-08-12T07:21:27.647Z,8.85
2023-08-12T07:26:33.732Z,12.73
2023-08-12T07:29:02.402Z,10.90
2023-08-12T07:31:36.241Z,9.38
2023-08-12T07:34:04.651Z,9.95
2023-08-12T07:36:35.024Z,10.73
2023-08-12T07:39:03.531Z,8.30
2023-08-12T07:41:31.821Z,6.38
2023-08-12T07:44:00.128Z,7.65
2023-08-12T07:46:29.795Z,8.85
2023-08-12T07:48:58.224Z,4.88
2023-08-12T07:51:26.623Z,5.55
2023-08-12T07:53:56.297Z,4.20
2023-08-12T07:56:24.729Z,5.43
2023-08-12T07:58:53.001Z,3.85
2023-08-12T08:01:21.312Z,3.25
2023-08-12T08:03:49.632Z,4.70
2023-08-12T08:06:17.961Z,3.17
2023-08-12T08:08:52.513Z,3.70
2023-08-12T08:11:22.220Z,4.93
2023-08-12T08:13:50.586Z,5.80
2023-08-12T08:16:19.098Z,5.07
2023-08-12T08:18:47.550Z,4.65
2023-08-12T08:21:18.805Z,4.20
2023-08-12T08:23:48.036Z,4.18
2023-08-12T08:26:17.101Z,3.50
2023-08-12T08:28:46.843Z,3.55
2023-08-12T08:31:15.157Z,3.53
2023-08-12T08:33:45.269Z,3.75
2023-08-12T08:36:13.973Z,4.00
2023-08-12T08:38:42.300Z,3.42
2023-08-12T08:41:13.822Z,3.90
2023-08-12T08:43:45.920Z,3.35
2023-08-12T08:46:17.873Z,2.90
2023-08-12T08:48:46.886Z,3.28
2023-08-12T08:51:15.660Z,2.90
2023-08-12T08:53:45.679Z,3.35
2023-08-12T08:56:16.150Z,3.08
2023-08-12T08:58:44.774Z,2.72
2023-08-12T09:01:14.447Z,3.28
2023-08-12T09:03:45.697Z,2.72
2023-08-12T09:06:14.179Z,4.43
2023-08-12T09:08:45.955Z,3.92
2023-08-12T09:11:15.642Z,3.13
2023-08-12T09:13:44.006Z,3.40
2023-08-12T09:16:12.357Z,3.65
2023-08-12T09:18:42.334Z,3.13
2023-08-12T09:21:12.603Z,3.45
2023-08-12T09:23:41.825Z,2.60
2023-08-12T09:26:17.540Z,3.50
2023-08-12T09:28:46.689Z,2.55
2023-08-12T09:31:25.569Z,2.65
2023-08-12T09:33:55.230Z,3.00
2023-08-12T09:36:25.005Z,3.80
2023-08-12T09:38:54.388Z,3.20
2023-08-12T09:41:25.006Z,2.53
2023-08-12T09:43:54.185Z,2.95
2023-08-12T09:46:25.260Z,3.20
2023-08-12T09:48:54.296Z,2.88
2023-08-12T09:51:24.366Z,2.50
2023-08-12T09:53:55.667Z,2.67
2023-08-12T09:56:25.921Z,2.85
2023-08-12T09:58:56.019Z,2.50
2023-08-12T10:01:25.136Z,3.00
2023-08-12T10:03:55.621Z,3.03
2023-08-12T10:06:26.408Z,2.45
2023-08-12T10:08:55.526Z,2.60
2023-08-12T10:11:24.107Z,2.78
2023-08-12T10:13:52.766Z,2.50
2023-08-12T10:16:22.149Z,2.88
2023-08-12T10:18:52.562Z,2.78
2023-08-12T10:21:21.126Z,2.47
2023-08-12T10:23:52.239Z,2.47
2023-08-12T10:26:21.358Z,2.92
2023-08-12T10:28:52.960Z,2.50
2023-08-12T10:31:22.259Z,2.53
2023-08-12T10:33:51.075Z,2.42
2023-08-12T10:36:20.309Z,2.45
2023-08-12T10:38:50.365Z,2.28
2023-08-12T10:41:20.046Z,2.65
2023-08-12T10:43:56.116Z,2.60
2023-08-12T10:46:26.014Z,2.40
2023-08-12T10:49:10.306Z,2.00
2023-08-12T10:51:47.671Z,2.50
2023-08-12T10:54:18.875Z,2.13
2023-08-12T10:57:06.338Z,2.70
2023-08-12T10:59:56.327Z,2.90
2023-08-12T11:02:30.522Z,2.83
2023-08-12T11:05:00.282Z,2.60
2023-08-12T11:07:36.598Z,2.33
2023-08-12T11:10:15.144Z,2.70
2023-08-12T11:12:47.910Z,2.50
2023-08-12T11:15:16.253Z,2.40
2023-08-12T11:17:45.268Z,2.30
2023-08-12T11:20:14.874Z,2.47
2023-08-12T11:22:46.138Z,2.72
2023-08-12T11:25:17.625Z,2.30
2023-08-12T11:27:50.937Z,2.45
2023-08-12T11:30:21.539Z,2.20
2023-08-12T11:32:51.122Z,2.20
2023-08-12T11:35:20.785Z,1.75
2023-08-12T11:37:50.387Z,2.22
2023-08-12T11:40:20.220Z,2.10
2023-08-12T11:42:50.660Z,2.08
2023-08-12T11:45:21.193Z,1.80
2023-08-12T11:47:55.522Z,2.20
2023-08-12T11:50:26.241Z,1.83
2023-08-12T11:52:55.471Z,2.10
2023-08-12T11:55:26.032Z,1.85
2023-08-12T11:57:54.925Z,1.70
2023-08-12T12:00:25.924Z,1.83
2023-08-12T12:02:55.642Z,1.98
2023-08-12T12:05:27.647Z,1.88
2023-08-12T12:07:56.570Z,1.98
2023-08-12T12:10:34.021Z,1.95
2023-08-12T12:13:05.868Z,2.10
2023-08-12T12:15:40.015Z,2.10
2023-08-12T12:18:12.032Z,1.95
2023-08-12T12:20:56.147Z,2.13
2023-08-12T12:23:24.608Z,1.58
2023-08-12T12:26:01.603Z,2.80
2023-08-12T12:28:35.122Z,2.42
2023-08-12T12:31:03.505Z,2.50
2023-08-12T12:33:31.917Z,2.17
2023-08-12T12:36:01.878Z,2.30
2023-08-12T12:38:32.653Z,2.20
2023-08-12T12:41:02.350Z,2.30
2023-08-12T12:43:30.740Z,2.10
2023-08-12T12:45:59.136Z,2.10
2023-08-12T12:48:27.443Z,2.30
2023-08-12T12:50:55.774Z,2.28
2023-08-12T12:53:24.446Z,2.58
2023-08-12T12:55:52.870Z,2.10
2023-08-12T12:58:24.359Z,2.30
2023-08-12T13:00:52.738Z,2.38
2023-08-12T13:03:21.197Z,2.20
2023-08-12T13:05:49.700Z,2.20
2023-08-12T13:08:18.033Z,2.03
2023-08-12T13:10:46.505Z,2.08
2023-08-12T13:13:16.952Z,2.13
2023-08-12T13:15:47.600Z,2.25
2023-08-12T13:18:16.019Z,2.00
2023-08-12T13:20:44.386Z,2.00
2023-08-12T13:23:13.163Z,2.20
2023-08-12T13:25:41.816Z,1.70
2023-08-12T13:28:10.300Z,2.00
2023-08-12T13:30:38.671Z,2.08
2023-08-12T13:33:08.862Z,2.00
2023-08-12T13:35:37.401Z,1.90
2023-08-12T13:38:06.192Z,2.10
2023-08-12T13:40:34.545Z,1.77
2023-08-12T13:43:02.821Z,1.70
2023-08-12T13:45:31.275Z,1.90
2023-08-12T13:47:59.636Z,1.90
2023-08-12T13:50:29.812Z,2.20
2023-08-12T13:52:58.110Z,1.80
2023-08-12T13:55:27.296Z,2.10
2023-08-12T13:57:55.730Z,1.67
2023-08-12T14:00:25.379Z,1.90
2023-08-12T14:02:55.880Z,2.30
2023-08-12T14:05:24.217Z,1.92
2023-08-12T14:07:53.882Z,2.05
2023-08-12T14:10:22.204Z,1.70
2023-08-12T14:12:53.334Z,1.67
2023-08-12T14:15:21.732Z,1.60
2023-08-12T14:17:50.115Z,2.08
2023-08-12T14:20:19.084Z,2.00
2023-08-12T14:22:47.393Z,1.67
2023-08-12T14:25:17.232Z,1.52
2023-08-12T14:27:45.583Z,2.10
2023-08-12T14:30:16.171Z,1.50
2023-08-12T14:32:44.539Z,2.20
2023-08-12T14:35:13.070Z,1.65
2023-08-12T14:37:41.394Z,2.13
2023-08-12T14:40:10.688Z,2.00
2023-08-12T14:42:40.441Z,1.67
2023-08-12T14:45:10.130Z,1.65
2023-08-12T14:47:38.554Z,1.80
2023-08-12T14:50:07.758Z,1.73
2023-08-12T14:52:36.196Z,1.80
2023-08-12T14:55:04.865Z,1.60
2023-08-12T14:57:33.402Z,1.80
2023-08-12T15:00:03.098Z,1.70
2023-08-12T15:02:33.343Z,1.60
2023-08-12T15:05:02.463Z,1.60
2023-08-12T15:07:32.722Z,1.70
2023-08-12T15:10:01.374Z,1.58
2023-08-12T15:12:30.022Z,1.48
2023-08-12T15:14:58.366Z,1.50
2023-08-12T15:17:28.188Z,1.40
2023-08-12T15:19:59.892Z,1.50
2023-08-12T15:22:30.088Z,1.63
2023-08-12T15:24:58.413Z,1.40
2023-08-12T15:27:26.747Z,1.60
2023-08-12T15:29:57.456Z,1.73
2023-08-12T15:32:27.168Z,1.95
2023-08-12T15:34:55.552Z,1.42
2023-08-12T15:37:23.885Z,1.80
2023-08-12T15:39:52.319Z,1.83
2023-08-12T15:42:20.707Z,1.90
2023-08-12T15:44:49.016Z,1.92
2023-08-12T15:47:17.344Z,1.70
2023-08-12T15:49:46.985Z,1.70
2023-08-12T15:52:15.321Z,1.50
2023-08-12T15:54:43.745Z,1.80
2023-08-12T15:57:12.350Z,2.40
2023-08-12T15:59:41.239Z,1.83
2023-08-12T16:02:10.669Z,1.80
2023-08-12T16:04:39.159Z,1.70
2023-08-12T16:07:10.289Z,1.55
2023-08-12T16:09:38.691Z,1.45
2023-08-12T16:12:07.465Z,1.90
2023-08-12T16:14:36.119Z,1.75
2023-08-12T16:17:09.309Z,1.83
2023-08-12T16:19:37.688Z,2.00
2023-08-12T16:22:06.070Z,2.25
2023-08-12T16:24:35.790Z,3.45
2023-08-12T16:27:06.190Z,2.83
2023-08-12T16:29:36.098Z,2.88
2023-08-12T16:32:04.547Z,2.42
2023-08-12T16:34:33.483Z,2.55
2023-08-12T16:37:19.773Z,2.60
2023-08-12T16:39:52.999Z,2.70
2023-08-12T16:42:22.981Z,2.78
2023-08-12T16:44:51.881Z,3.22
2023-08-12T16:47:20.205Z,3.42
2023-08-12T16:49:51.230Z,3.60
2023-08-12T16:52:19.678Z,2.53
2023-08-12T16:54:47.957Z,2.70
2023-08-12T16:57:17.952Z,2.65
2023-08-12T16:59:46.274Z,3.33
2023-08-12T17:02:14.813Z,2.85
2023-08-12T17:04:43.339Z,2.55
2023-08-12T17:07:11.651Z,2.55
2023-08-12T17:09:39.979Z,2.80
2023-08-12T17:12:12.085Z,2.58
2023-08-12T17:14:41.974Z,2.22
2023-08-12T17:17:10.383Z,2.05
2023-08-12T17:19:40.081Z,2.80
2023-08-12T17:22:08.442Z,2.58
2023-08-12T17:24:37.414Z,2.63
2023-08-12T17:27:05.775Z,2.67
2023-08-12T17:29:34.152Z,2.60
2023-08-12T17:32:04.250Z,2.08
2023-08-12T17:34:32.562Z,2.30
2023-08-12T17:37:00.899Z,2.22
2023-08-12T17:39:30.214Z,2.63
2023-08-12T17:41:58.520Z,2.35
2023-08-12T17:44:26.790Z,2.47
2023-08-12T17:46:55.059Z,3.42
2023-08-12T17:49:24.809Z,3.30
2023-08-12T17:51:53.137Z,3.08
2023-08-12T17:54:21.637Z,3.10
2023-08-12T17:56:58.197Z,2.63
2023-08-12T17:59:26.477Z,2.47
2023-08-12T18:01:54.739Z,2.75
2023-08-12T18:04:24.404Z,2.90
2023-08-12T18:06:53.155Z,2.67
2023-08-12T18:09:21.743Z,2.85
2023-08-12T18:11:50.189Z,2.38
2023-08-12T18:14:22.259Z,2.38
2023-08-12T18:16:50.736Z,2.72
2023-08-12T18:19:19.083Z,2.80
2023-08-12T18:21:48.899Z,3.13
2023-08-12T18:24:19.565Z,3.28
2023-08-12T18:26:48.045Z,2.75
2023-08-12T18:29:16.337Z,2.90
2023-08-12T18:31:44.719Z,2.78
2023-08-12T18:34:12.998Z,2.88
2023-08-12T18:36:41.314Z,3.20
2023-08-12T18:39:11.051Z,3.20
2023-08-12T18:41:39.311Z,2.90
2023-08-12T18:44:07.845Z,3.28
2023-08-12T18:46:38.950Z,3.45
2023-08-12T18:49:07.303Z,2.92
2023-08-12T18:51:36.153Z,3.13
2023-08-12T18:54:08.103Z,3.83
2023-08-12T18:56:38.023Z,3.35
2023-08-12T18:59:06.705Z,2.85
2023-08-12T19:01:35.156Z,3.38
2023-08-12T19:04:03.563Z,3.50
2023-08-12T19:06:31.974Z,2.83
2023-08-12T19:09:00.538Z,3.33
2023-08-12T19:11:30.793Z,3.13
2023-08-12T19:14:00.514Z,3.35
2023-08-12T19:16:30.039Z,3.25
2023-08-12T19:18:58.389Z,3.10
2023-08-12T19:21:26.808Z,3.65
2023-08-12T19:23:55.111Z,3.38
2023-08-12T19:26:23.519Z,3.38
2023-08-12T19:28:52.151Z,3.33
2023-08-12T19:31:21.865Z,3.50
2023-08-12T19:33:52.311Z,3.65
2023-08-12T19:36:20.704Z,3.45
2023-08-12T19:38:49.004Z,3.65
2023-08-12T19:41:17.286Z,3.88
2023-08-12T19:43:45.565Z,4.07
2023-08-12T19:46:13.937Z,3.65
2023-08-12T19:48:56.900Z,3.72
2023-08-12T19:51:25.298Z,3.50
2023-08-12T19:53:53.620Z,3.63
2023-08-12T19:56:21.965Z,4.13
2023-08-12T19:58:50.245Z,4.35
2023-08-12T20:01:18.560Z,4.78
2023-08-12T20:03:46.984Z,4.80
2023-08-12T20:06:16.669Z,5.05
2023-08-12T20:08:44.995Z,4.93
2023-08-12T20:11:13.366Z,4.85
2023-08-12T20:13:41.691Z,3.83
2023-08-12T20:16:09.964Z,4.50
2023-08-12T20:18:38.530Z,4.35
2023-08-12T20:21:06.840Z,4.50
2023-08-12T20:23:36.552Z,4.25
2023-08-12T20:26:06.172Z,4.40
2023-08-12T20:28:34.552Z,4.50
2023-08-12T20:31:03.000Z,3.60
2023-08-12T20:33:31.360Z,4.05
2023-08-12T20:35:59.746Z,4.15
2023-08-12T20:38:28.033Z,3.40
2023-08-12T20:40:57.698Z,4.10
2023-08-12T20:43:26.462Z,3.60
2023-08-12T20:45:55.000Z,4.18
2023-08-12T20:48:23.311Z,3.63
2023-08-12T20:50:51.599Z,3.67
2023-08-12T20:53:19.940Z,3.75
2023-08-12T20:55:48.264Z,3.47
2023-08-12T20:58:17.914Z,3.90
2023-08-12T21:00:47.480Z,3.45
2023-08-12T21:03:18.489Z,3.25
2023-08-12T21:05:51.266Z,3.28
2023-08-12T21:08:19.537Z,3.17
2023-08-12T21:10:53.487Z,3.00
2023-08-12T21:13:23.642Z,3.28
2023-08-12T21:15:52.010Z,3.13
2023-08-12T21:18:20.347Z,3.33
2023-08-12T21:20:50.696Z,3.30
2023-08-12T21:23:19.001Z,3.72
2023-08-12T21:25:48.045Z,3.95
2023-08-12T21:28:16.373Z,3.80
2023-08-12T21:30:46.067Z,3.70
2023-08-12T21:33:14.476Z,3.30
2023-08-12T21:35:42.804Z,3.60
2023-08-12T21:38:11.159Z,3.70
2023-08-12T21:40:39.493Z,4.00
2023-08-12T21:43:10.069Z,3.55
2023-08-12T21:45:38.395Z,3.63
2023-08-12T21:48:10.049Z,3.33
2023-08-12T21:50:38.608Z,3.22
2023-08-12T21:53:06.957Z,3.30
2023-08-12T21:55:35.323Z,3.22
2023-08-12T21:58:03.682Z,3.45
2023-08-12T22:00:32.042Z,3.63
2023-08-12T22:03:01.535Z,3.30
2023-08-12T22:05:31.843Z,3.35
2023-08-12T22:08:00.691Z,3.15
2023-08-12T22:10:29.069Z,3.47
2023-08-12T22:12:57.383Z,3.35
2023-08-12T22:15:25.745Z,3.90
2023-08-12T22:17:54.074Z,3.67
2023-08-12T22:20:23.356Z,3.10
2023-08-12T22:22:53.031Z,3.40
2023-08-12T22:25:21.563Z,3.50
2023-08-12T22:27:50.177Z,4.13
2023-08-12T22:30:18.721Z,3.13
2023-08-12T22:32:47.148Z,3.67
2023-08-12T22:35:15.706Z,3.50
2023-08-12T22:37:44.006Z,3.17
2023-08-12T22:40:13.810Z,3.80
2023-08-12T22:42:44.762Z,3.20
2023-08-12T22:45:13.095Z,2.72
2023-08-12T22:47:41.537Z,3.67
2023-08-12T22:50:13.120Z,3.38
2023-08-12T22:52:42.684Z,3.30
2023-08-12T22:55:14.785Z,3.28
2023-08-12T22:57:43.121Z,3.30
2023-08-12T23:00:12.257Z,3.10
2023-08-12T23:02:40.874Z,3.17
2023-08-12T23:05:09.556Z,2.78
2023-08-12T23:07:37.894Z,3.17
2023-08-12T23:10:07.048Z,2.92
2023-08-12T23:12:38.486Z,3.22
2023-08-12T23:15:08.149Z,3.10
2023-08-12T23:17:36.586Z,3.38
2023-08-12T23:20:09.386Z,2.75
2023-08-12T23:22:37.747Z,3.10
2023-08-12T23:25:07.087Z,3.33
2023-08-12T23:27:36.857Z,3.28
2023-08-12T23:30:05.946Z,3.25
2023-08-12T23:32:36.498Z,3.03
2023-08-12T23:35:05.435Z,2.88
2023-08-12T23:37:33.830Z,2.83
2023-08-12T23:40:03.157Z,3.50
2023-08-12T23:42:31.508Z,3.10
2023-08-12T23:45:01.735Z,3.50
2023-08-12T23:47:30.276Z,3.60
2023-08-12T23:49:58.650Z,3.38
2023-08-12T23:52:26.960Z,3.05
2023-08-12T23:54:55.442Z,3.90
2023-08-12T23:57:23.781Z,3.50
2023-08-12T23:59:52.124Z,3.33
